Time;durP1;ratioP1;P1;durP2;ratioP2;P2;SDS_P1;SDS_P2;PMS_P1;PMS_P2;Temp;Humidity;BMP_temperature;BMP_pressure;BME280_temperature;BME280_humidity;BME280_pressure;Samples;Min_cycle;Max_cycle;Signal;HPM_P1;HPM_P2
2023/12/20 00:01:05;;;;;;;20.90;9.95;;;7.10;99.90;;;7.41;100.00;100223.69;5060327;28;20033;-86
2023/12/20 00:03:31;;;;;;;16.38;9.10;;;7.10;99.90;;;7.43;100.00;100236.03;5041924;28;20075;-85
2023/12/20 00:05:57;;;;;;;17.50;8.93;;;7.00;99.90;;;7.49;100.00;100232.47;5061364;28;20040;-84
2023/12/20 00:08:22;;;;;;;18.08;9.15;;;6.90;99.90;;;7.27;100.00;100242.69;5064660;28;20017;-86
2023/12/20 00:10:48;;;;;;;14.43;8.10;;;6.90;99.90;;;7.18;100.00;100247.44;5068725;28;20508;-85
2023/12/20 00:13:14;;;;;;;18.92;8.25;;;6.90;99.90;;;7.28;100.00;100257.06;5065348;28;20024;-85
2023/12/20 00:15:39;;;;;;;16.88;8.07;;;6.80;99.90;;;7.42;100.00;100242.50;5056703;28;20033;-84
2023/12/20 00:18:05;;;;;;;16.17;8.68;;;6.80;99.90;;;7.28;100.00;100247.06;5063736;28;20182;-86
2023/12/20 00:20:31;;;;;;;16.10;8.73;;;6.80;99.90;;;7.15;100.00;100253.28;5068969;28;20036;-86
2023/12/20 00:22:57;;;;;;;14.25;7.72;;;6.80;99.90;;;7.29;100.00;100253.31;5062538;28;20047;-85
2023/12/20 00:25:24;;;;;;;14.38;7.65;;;6.70;99.90;;;7.23;100.00;100260.41;5038356;28;20425;-85
2023/12/20 00:27:50;;;;;;;15.90;7.88;;;6.70;99.90;;;7.11;100.00;100262.03;5057560;28;20063;-86
2023/12/20 00:30:16;;;;;;;17.73;7.72;;;6.70;99.90;;;7.07;100.00;100266.19;5051998;28;20475;-85
2023/12/20 00:32:48;;;;;;;19.40;7.00;;;6.60;99.90;;;7.03;100.00;100269.31;5064587;28;20048;-83
2023/12/20 00:35:15;;;;;;;17.15;6.88;;;6.60;99.90;;;7.07;100.00;100282.47;5062698;28;20395;-84
2023/12/20 00:37:41;;;;;;;17.70;6.90;;;6.60;99.90;;;6.97;100.00;100285.53;5069950;28;20033;-84
2023/12/20 00:40:07;;;;;;;15.32;6.75;;;6.50;99.90;;;6.79;100.00;100286.09;5046728;28;20121;-83
2023/12/20 00:42:33;;;;;;;13.00;5.75;;;6.50;99.90;;;6.79;100.00;100286.09;5058728;28;20128;-86
2023/12/20 00:45:00;;;;;;;11.68;5.75;;;6.50;99.90;;;6.88;100.00;100285.72;5059161;28;20041;-83
2023/12/20 00:47:26;;;;;;;15.40;5.35;;;6.50;99.90;;;6.93;100.00;100293.28;5063530;28;20097;-83
2023/12/20 00:49:52;;;;;;;13.20;5.25;;;6.40;99.90;;;6.76;100.00;100285.47;5063516;28;20376;-85
2023/12/20 00:52:18;;;;;;;13.93;6.57;;;6.40;99.90;;;6.88;100.00;100301.16;5042160;28;20055;-84
2023/12/20 00:54:44;;;;;;;12.90;5.35;;;6.30;99.90;;;6.92;100.00;100302.44;5063120;28;20039;-84
2023/12/20 00:57:10;;;;;;;14.30;5.05;;;6.30;99.90;;;7.00;100.00;100299.56;5056409;28;20115;-84
2023/12/20 00:59:36;;;;;;;12.93;4.90;;;6.30;99.90;;;6.97;100.00;100294.53;5056775;28;20040;-84
2023/12/20 01:02:02;;;;;;;10.57;5.75;;;6.30;99.90;;;7.11;100.00;100300.00;5069609;28;20396;-82
2023/12/20 01:04:28;;;;;;;12.23;5.10;;;6.20;99.90;;;7.06;100.00;100297.91;5058535;28;20106;-82
2023/12/20 01:06:53;;;;;;;17.05;5.78;;;6.20;99.90;;;7.01;100.00;100301.22;5067217;28;20109;-83
2023/12/20 01:09:19;;;;;;;12.65;5.03;;;6.10;99.90;;;6.87;100.00;100291.34;5065985;28;20397;-83
2023/12/20 01:11:46;;;;;;;14.43;5.90;;;6.10;99.90;;;6.80;100.00;100295.91;5061417;28;20039;-83
2023/12/20 01:14:12;;;;;;;15.27;4.80;;;6.10;99.90;;;6.73;100.00;100294.00;5065149;28;20123;-82
2023/12/20 01:16:38;;;;;;;16.08;4.30;;;6.10;99.90;;;6.81;100.00;100279.44;5070723;28;20031;-85
2023/12/20 01:19:03;;;;;;;12.38;4.90;;;6.00;99.90;;;6.56;100.00;100289.91;5062467;28;20045;-85
2023/12/20 01:21:29;;;;;;;15.35;3.85;;;6.00;99.90;;;6.41;100.00;100285.47;5058484;28;20029;-84
2023/12/20 01:23:55;;;;;;;13.57;3.40;;;6.10;99.90;;;6.74;100.00;100281.25;5063055;28;20050;-83
2023/12/20 01:26:20;;;;;;;13.57;3.83;;;6.00;99.90;;;6.77;100.00;100289.03;5066356;28;20047;-82
2023/12/20 01:28:46;;;;;;;11.73;3.53;;;5.90;99.90;;;6.79;100.00;100288.81;5065500;28;20173;-83
2023/12/20 01:31:12;;;;;;;13.55;3.30;;;5.90;99.90;;;6.78;100.00;100295.25;5069371;28;20028;-83
2023/12/20 01:33:37;;;;;;;10.52;3.03;;;5.80;99.90;;;6.72;100.00;100296.88;5074139;28;20476;-82
2023/12/20 01:36:04;;;;;;;12.55;3.35;;;5.80;99.90;;;6.76;100.00;100299.00;5066662;28;20025;-82
2023/12/20 01:38:30;;;;;;;12.02;3.50;;;5.80;99.90;;;6.62;100.00;100281.84;5073981;28;20123;-82
2023/12/20 01:40:55;;;;;;;11.02;3.58;;;5.80;99.90;;;6.59;100.00;100294.94;5068678;28;20033;-82
2023/12/20 01:43:21;;;;;;;15.27;3.17;;;5.90;99.90;;;6.51;100.00;100303.25;5058212;28;20036;-85
2023/12/20 01:45:47;;;;;;;18.17;3.00;;;5.90;99.90;;;6.61;100.00;100303.72;5061683;28;20492;-82
2023/12/20 01:48:16;;;;;;;13.75;3.78;;;5.90;99.90;;;6.48;100.00;100309.88;5062784;28;20036;-84
2023/12/20 01:50:43;;;;;;;13.60;2.83;;;6.00;99.90;;;6.58;100.00;100306.81;5073363;28;20103;-84
2023/12/20 01:53:12;;;;;;;13.07;3.10;;;6.00;99.90;;;6.70;100.00;100310.66;5062876;28;20365;-82
2023/12/20 01:55:42;;;;;;;14.60;2.90;;;6.00;99.90;;;6.61;100.00;100296.44;5043635;28;20132;-83
2023/12/20 01:58:10;;;;;;;12.43;3.35;;;5.90;99.90;;;6.62;100.00;100303.53;5042041;28;20072;-82
2023/12/20 02:00:37;;;;;;;9.65;2.88;;;5.90;99.90;;;6.55;100.00;100304.50;5066585;28;20087;-84
2023/12/20 02:03:03;;;;;;;9.65;2.88;;;5.80;99.90;;;6.44;100.00;100311.31;5063783;28;20032;-84
2023/12/20 02:05:35;;;;;;;11.73;2.80;;;5.80;99.90;;;6.40;100.00;100304.63;5065457;28;20115;-83
2023/12/20 02:08:00;;;;;;;10.18;2.45;;;5.80;99.90;;;6.37;100.00;100313.16;5067516;28;20046;-83
2023/12/20 02:10:29;;;;;;;17.38;3.00;;;5.70;99.90;;;6.32;100.00;100311.03;5069636;28;20107;-83
2023/12/20 02:12:56;;;;;;;14.60;2.78;;;5.70;99.90;;;6.23;100.00;100299.50;5068880;28;20072;-81
2023/12/20 02:15:22;;;;;;;13.73;2.60;;;5.70;99.90;;;6.44;100.00;100311.31;5036815;28;20031;-83
2023/12/20 02:17:48;;;;;;;11.68;2.53;;;5.70;99.90;;;6.34;100.00;100317.06;5062435;28;20115;-84
2023/12/20 02:20:14;;;;;;;15.05;2.92;;;5.60;99.90;;;6.14;100.00;100304.22;5070407;28;20052;-85
2023/12/20 02:22:40;;;;;;;11.85;2.28;;;5.60;99.90;;;6.28;100.00;100305.19;5067391;28;20033;-84
2023/12/20 02:25:06;;;;;;;12.45;3.35;;;5.60;99.90;;;6.38;100.00;100295.84;5060807;28;20048;-84
2023/12/20 02:27:32;;;;;;;8.55;2.30;;;5.70;99.90;;;6.31;100.00;100296.66;5049055;28;20090;-84
2023/12/20 02:29:57;;;;;;;11.75;2.35;;;5.60;99.90;;;6.38;100.00;100285.88;5065626;28;20048;-83
2023/12/20 02:32:27;;;;;;;9.80;3.15;;;5.60;99.90;;;6.30;100.00;100280.56;5049708;28;20044;-84
2023/12/20 02:34:54;;;;;;;13.18;2.40;;;5.50;99.90;;;6.18;100.00;100277.56;5071936;28;20036;-85
2023/12/20 02:37:20;;;;;;;13.90;2.42;;;5.50;99.90;;;6.19;100.00;100273.84;5059816;28;20106;-83
2023/12/20 02:39:46;;;;;;;15.13;2.47;;;5.40;99.90;;;6.16;100.00;100280.50;5050167;28;20049;-84
2023/12/20 02:42:12;;;;;;;10.25;2.20;;;5.40;99.90;;;6.26;100.00;100279.31;5065438;28;20143;-84
2023/12/20 02:44:37;;;;;;;11.25;2.33;;;5.40;99.90;;;6.33;100.00;100285.59;5039483;28;20045;-83
2023/12/20 02:47:03;;;;;;;13.98;2.72;;;5.50;99.90;;;6.40;100.00;100296.50;5060177;28;20037;-85
2023/12/20 02:49:29;;;;;;;14.07;2.33;;;5.50;99.90;;;6.33;100.00;100289.16;5064304;28;20036;-84
2023/12/20 02:51:55;;;;;;;11.48;2.42;;;5.40;99.90;;;6.29;100.00;100298.72;5066322;28;20051;-84
2023/12/20 02:54:21;;;;;;;9.98;2.53;;;5.40;99.90;;;6.19;100.00;100299.06;5068077;28;20021;-83
2023/12/20 02:56:47;;;;;;;9.10;2.95;;;5.40;99.90;;;6.11;100.00;100280.25;5071176;28;20040;-84
2023/12/20 02:59:13;;;;;;;11.55;2.60;;;5.30;99.90;;;6.02;100.00;100271.44;5065993;28;20119;-84
2023/12/20 03:01:44;;;;;;;11.88;2.67;;;5.30;99.90;;;6.15;100.00;100286.09;5063977;28;20154;-84
2023/12/20 03:04:11;;;;;;;13.18;3.22;;;5.30;99.90;;;6.11;100.00;100284.81;5060712;28;20048;-83
2023/12/20 03:06:37;;;;;;;19.85;3.40;;;5.30;99.90;;;6.03;100.00;100281.22;5057918;28;20052;-83
2023/12/20 03:09:03;;;;;;;14.25;2.60;;;5.20;99.90;;;6.01;100.00;100285.16;5058942;28;20063;-83
2023/12/20 03:11:29;;;;;;;11.73;2.28;;;5.30;99.90;;;5.89;100.00;100272.13;5071754;28;20116;-84
2023/12/20 03:13:55;;;;;;;7.47;2.60;;;5.20;99.90;;;5.83;100.00;100275.59;5071852;28;20035;-85
2023/12/20 03:16:21;;;;;;;7.43;2.50;;;5.20;99.90;;;5.93;100.00;100272.56;5070642;28;20498;-84
2023/12/20 03:18:47;;;;;;;12.52;2.75;;;5.10;99.90;;;5.87;100.00;100254.38;5070418;28;20029;-83
2023/12/20 03:21:13;;;;;;;11.30;2.60;;;5.10;99.90;;;5.92;100.00;100260.03;5070947;28;20044;-84
2023/12/20 03:23:38;;;;;;;9.00;2.05;;;5.20;99.90;;;5.89;100.00;100260.44;5068784;28;20033;-83
2023/12/20 03:26:08;;;;;;;8.82;1.90;;;5.20;99.90;;;5.95;100.00;100272.38;5058321;28;20427;-83
2023/12/20 03:28:34;;;;;;;6.95;1.65;;;5.20;99.90;;;5.88;100.00;100256.91;5066506;28;20024;-83
2023/12/20 03:31:00;;;;;;;11.18;2.13;;;5.10;99.90;;;5.92;100.00;100261.94;5060470;28;20036;-84
2023/12/20 03:33:25;;;;;;;14.07;2.30;;;5.10;99.90;;;5.89;100.00;100255.03;5057339;28;20033;-83
2023/12/20 03:35:51;;;;;;;7.45;1.55;;;5.10;99.90;;;5.90;100.00;100241.31;5066427;28;20349;-84
2023/12/20 03:38:17;;;;;;;7.78;1.65;;;5.10;99.90;;;5.97;100.00;100229.69;5061211;28;20035;-84
2023/12/20 03:40:42;;;;;;;8.85;1.83;;;5.10;99.90;;;5.90;100.00;100232.34;5065900;28;20028;-84
2023/12/20 03:43:08;;;;;;;8.48;1.30;;;5.10;99.90;;;5.92;100.00;100237.56;5061579;28;20502;-84
2023/12/20 03:45:34;;;;;;;9.70;1.73;;;5.10;99.90;;;5.87;100.00;100239.00;5067090;28;20036;-83
2023/12/20 03:48:00;;;;;;;5.97;1.50;;;5.10;99.90;;;5.90;100.00;100235.03;5064351;28;20503;-84
2023/12/20 03:50:26;;;;;;;6.75;1.38;;;5.10;99.90;;;6.00;100.00;100223.88;5070951;28;20473;-83
2023/12/20 03:52:53;;;;;;;8.43;1.38;;;5.10;99.90;;;6.00;100.00;100235.56;5064739;28;20043;-83
2023/12/20 03:55:19;;;;;;;11.10;1.47;;;5.20;99.90;;;5.98;100.00;100234.06;5041517;28;20091;-83
2023/12/20 03:57:45;;;;;;;14.07;2.65;;;5.20;99.90;;;6.10;100.00;100234.41;5070267;28;20111;-83
2023/12/20 04:00:11;;;;;;;9.30;1.90;;;5.30;99.90;;;6.01;100.00;100234.56;5060908;28;20439;-83
2023/12/20 04:02:42;;;;;;;14.13;1.70;;;5.40;99.90;;;6.14;100.00;100235.66;5058823;28;20060;-84
2023/12/20 04:05:09;;;;;;;11.15;1.80;;;5.40;99.90;;;6.10;100.00;100239.81;5062648;28;20506;-84
2023/12/20 04:07:38;;;;;;;10.00;1.33;;;5.40;99.90;;;6.14;100.00;100233.81;5063722;28;20060;-84
2023/12/20 04:10:05;;;;;;;8.25;1.40;;;5.40;99.90;;;6.09;100.00;100228.13;5069191;28;20056;-83
2023/12/20 04:12:31;;;;;;;6.72;2.13;;;5.40;99.90;;;6.23;100.00;100230.94;5070704;28;20033;-83
2023/12/20 04:14:57;;;;;;;9.35;1.60;;;5.40;99.90;;;6.11;100.00;100222.53;5039775;28;20111;-83
2023/12/20 04:17:23;;;;;;;8.63;1.60;;;5.40;99.90;;;6.16;100.00;100225.47;5070770;28;20416;-83
2023/12/20 04:19:50;;;;;;;12.55;2.03;;;5.50;99.90;;;6.29;100.00;100228.28;5065480;28;20495;-84
2023/12/20 04:22:19;;;;;;;5.78;1.45;;;5.60;99.90;;;6.27;100.00;100232.22;5058016;28;20037;-84
2023/12/20 04:24:45;;;;;;;9.95;1.90;;;5.60;99.90;;;6.27;100.00;100218.66;5055629;28;20090;-84
2023/12/20 04:27:11;;;;;;;8.02;1.83;;;5.60;99.90;;;6.28;100.00;100234.75;5057743;28;20514;-84
2023/12/20 04:29:37;;;;;;;9.25;1.67;;;5.50;99.90;;;6.24;100.00;100224.47;5064879;28;20119;-84
2023/12/20 04:32:04;;;;;;;9.55;1.83;;;5.60;99.90;;;6.24;100.00;100219.91;5045663;28;20036;-83
2023/12/20 04:34:30;;;;;;;8.95;1.65;;;5.50;99.90;;;6.18;100.00;100213.41;5069680;28;20029;-84
2023/12/20 04:36:55;;;;;;;9.18;1.75;;;5.50;99.90;;;6.27;100.00;100227.66;5061004;28;20275;-84
2023/12/20 04:39:21;;;;;;;9.30;2.47;;;5.60;99.90;;;6.22;100.00;100221.13;5054623;28;20095;-84
2023/12/20 04:41:50;;;;;;;8.32;1.88;;;5.60;99.90;;;6.39;100.00;100217.09;5069989;28;20113;-84
2023/12/20 04:44:15;;;;;;;6.70;2.40;;;5.70;99.90;;;6.37;100.00;100213.75;5069106;28;20040;-83
2023/12/20 04:46:41;;;;;;;10.63;2.83;;;5.70;99.90;;;6.45;100.00;100210.88;5064781;28;20032;-84
2023/12/20 04:49:07;;;;;;;13.10;2.08;;;5.70;99.90;;;6.39;100.00;100210.81;5064089;28;20496;-83
2023/12/20 04:51:34;;;;;;;14.15;2.40;;;5.80;99.90;;;6.52;100.00;100219.03;5059167;28;20059;-83
2023/12/20 04:54:00;;;;;;;14.10;2.42;;;5.90;99.90;;;6.61;100.00;100206.13;5062723;28;20036;-85
2023/12/20 04:56:26;;;;;;;12.18;2.05;;;5.90;99.90;;;6.60;100.00;100202.59;5068481;28;20033;-84
2023/12/20 04:58:51;;;;;;;7.82;1.85;;;5.90;99.90;;;6.72;100.00;100210.13;5065368;28;20396;-84
2023/12/20 05:01:18;;;;;;;10.80;2.08;;;6.00;99.90;;;6.83;100.00;100222.28;5044660;28;20036;-83
2023/12/20 05:03:43;;;;;;;10.10;1.80;;;5.90;99.90;;;6.65;100.00;100207.41;5064188;28;20044;-84
2023/12/20 05:06:10;;;;;;;10.68;2.40;;;6.00;99.90;;;6.59;100.00;100200.06;5069409;28;20388;-84
2023/12/20 05:08:36;;;;;;;9.25;1.88;;;5.90;99.90;;;6.71;100.00;100197.63;5069635;28;20434;-85
2023/12/20 05:11:02;;;;;;;12.13;2.45;;;6.00;99.90;;;6.76;100.00;100209.53;5047396;28;20118;-84
2023/12/20 05:13:28;;;;;;;9.75;1.98;;;6.00;99.90;;;6.70;100.00;100204.94;5035657;28;20033;-84
2023/12/20 05:15:53;;;;;;;10.25;2.13;;;6.00;99.90;;;6.67;100.00;100194.50;5066727;28;20185;-83
2023/12/20 05:18:21;;;;;;;12.77;2.92;;;6.00;99.90;;;6.74;100.00;100203.47;5059159;28;20086;-84
2023/12/20 05:20:47;;;;;;;12.85;2.40;;;6.00;99.90;;;6.61;100.00;100195.28;5066121;28;20051;-84
2023/12/20 05:23:13;;;;;;;10.40;2.15;;;6.00;99.90;;;6.75;100.00;100204.31;5061098;28;20050;-83
2023/12/20 05:25:39;;;;;;;8.70;1.77;;;6.00;99.90;;;6.71;100.00;100198.47;5062310;28;20480;-84
2023/12/20 05:28:05;;;;;;;11.77;2.30;;;6.10;99.90;;;6.89;100.00;100202.47;5063846;28;20040;-84
2023/12/20 05:30:30;;;;;;;9.43;2.00;;;6.10;99.90;;;6.94;100.00;100208.16;5066146;28;20028;-82
2023/12/20 05:32:56;;;;;;;9.10;2.08;;;6.10;99.90;;;6.82;100.00;100197.06;5063609;28;20422;-80
2023/12/20 05:35:23;;;;;;;13.35;2.95;;;6.20;99.90;;;6.87;100.00;100200.00;5066160;28;20032;-85
2023/12/20 05:37:49;;;;;;;12.82;2.58;;;6.20;99.90;;;6.71;100.00;100198.47;5065532;28;20044;-83
2023/12/20 05:40:15;;;;;;;15.15;2.60;;;6.20;99.90;;;6.61;100.00;100192.56;5035061;28;20033;-82
2023/12/20 05:42:41;;;;;;;11.82;3.08;;;6.00;99.90;;;6.27;100.00;100197.00;5058326;28;20498;-82
2023/12/20 05:45:07;;;;;;;12.48;2.90;;;5.90;99.90;;;6.27;100.00;100195.13;5048734;28;20044;-84
2023/12/20 05:47:33;;;;;;;17.65;2.95;;;5.70;99.90;;;6.22;100.00;100199.47;5066511;28;20048;-82
2023/12/20 05:49:58;;;;;;;15.13;2.80;;;5.70;99.90;;;6.14;100.00;100195.88;5058887;28;20067;-82
2023/12/20 05:52:24;;;;;;;16.15;3.08;;;5.60;99.90;;;6.16;100.00;100193.81;5062319;28;20098;-81
2023/12/20 05:54:50;;;;;;;12.63;2.78;;;5.60;99.90;;;6.19;100.00;100173.59;5039715;28;20397;-80
2023/12/20 05:57:16;;;;;;;16.67;3.10;;;5.70;99.90;;;6.26;100.00;100181.78;5065494;28;20496;-80
2023/12/20 05:59:41;;;;;;;17.67;3.53;;;5.60;99.90;;;6.25;100.00;100205.34;5039252;28;20036;-83
2023/12/20 06:02:07;;;;;;;12.38;3.20;;;5.60;99.90;;;6.23;100.00;100196.53;5072032;28;20047;-84
2023/12/20 06:04:33;;;;;;;17.60;3.45;;;5.70;99.90;;;6.25;100.00;100185.53;5064948;28;20045;-84
2023/12/20 06:06:59;;;;;;;23.08;3.53;;;5.70;99.90;;;6.25;100.00;100193.66;5058181;28;20059;-84
2023/12/20 06:09:26;;;;;;;14.93;3.22;;;5.70;99.90;;;6.26;100.00;100195.31;5062212;28;20039;-84
2023/12/20 06:11:53;;;;;;;12.52;3.05;;;5.70;99.90;;;6.24;100.00;100187.41;5040662;28;20033;-84
2023/12/20 06:14:19;;;;;;;10.98;2.97;;;5.80;99.90;;;6.24;100.00;100200.97;5061663;28;20032;-83
2023/12/20 06:16:45;;;;;;;12.73;2.85;;;5.80;99.90;;;6.24;100.00;100200.09;5065824;28;20126;-83
2023/12/20 06:19:11;;;;;;;13.68;3.58;;;5.80;99.90;;;6.21;100.00;100198.63;5070738;28;20083;-81
2023/12/20 06:21:37;;;;;;;9.00;2.65;;;5.80;99.90;;;6.22;100.00;100188.63;5054074;28;20033;-84
2023/12/20 06:24:03;;;;;;;12.77;3.10;;;5.80;99.90;;;6.14;100.00;100173.38;5073235;28;20044;-83
2023/12/20 06:26:29;;;;;;;16.65;3.00;;;5.70;99.90;;;6.13;100.00;100179.81;5068255;28;20064;-86
2023/12/20 06:28:55;;;;;;;13.25;3.00;;;5.60;99.90;;;6.14;100.00;100187.75;5073055;28;20041;-82
2023/12/20 06:31:21;;;;;;;16.17;2.83;;;5.70;99.90;;;6.36;100.00;100184.94;5069852;28;20045;-82
2023/12/20 06:33:46;;;;;;;11.88;3.33;;;5.80;99.90;;;6.44;100.00;100200.22;5072746;28;20070;-80
2023/12/20 06:36:13;;;;;;;13.88;2.75;;;5.90;99.90;;;6.48;100.00;100193.34;5054040;28;20029;-79
2023/12/20 06:38:39;;;;;;;13.77;2.83;;;5.90;99.90;;;6.46;100.00;100207.13;5056632;28;20067;-79
2023/12/20 06:41:05;;;;;;;16.75;2.75;;;6.00;99.90;;;6.53;100.00;100190.03;5072204;28;20048;-79
2023/12/20 06:43:32;;;;;;;11.35;2.80;;;6.00;99.90;;;6.58;100.00;100187.56;5053646;28;20082;-79
2023/12/20 06:45:58;;;;;;;14.40;3.05;;;6.00;99.90;;;6.50;100.00;100172.31;5067977;28;20044;-79
2023/12/20 06:48:24;;;;;;;18.10;3.28;;;6.10;99.90;;;6.62;100.00;100183.41;5056339;28;20032;-79
2023/12/20 06:50:49;;;;;;;13.23;2.83;;;6.10;99.90;;;6.66;100.00;100181.13;5071912;28;20441;-79
2023/12/20 06:53:15;;;;;;;13.52;2.50;;;6.10;99.90;;;6.64;100.00;100181.34;5048025;28;20056;-79
2023/12/20 06:55:41;;;;;;;15.75;2.60;;;6.10;99.90;;;6.56;100.00;100168.81;5063963;28;20049;-79
2023/12/20 06:58:06;;;;;;;13.02;2.75;;;6.10;99.90;;;6.68;100.00;100181.75;5071996;28;20029;-79
2023/12/20 07:00:33;;;;;;;20.88;3.55;;;6.00;99.90;;;6.43;100.00;100195.81;5037000;28;20037;-79
2023/12/20 07:02:59;;;;;;;14.90;2.53;;;5.90;99.90;;;6.36;100.00;100160.56;5060502;28;20033;-78
2023/12/20 07:05:25;;;;;;;10.98;3.10;;;5.90;99.90;;;6.36;100.00;100187.66;5041999;28;20086;-79
2023/12/20 07:07:50;;;;;;;14.43;2.80;;;5.80;99.90;;;6.29;100.00;100184.09;5067714;28;20032;-79
2023/12/20 07:10:16;;;;;;;12.85;2.58;;;5.70;99.90;;;6.22;100.00;100202.19;5071178;28;20056;-80
2023/12/20 07:12:42;;;;;;;10.05;2.50;;;5.70;99.90;;;6.33;100.00;100183.50;5065975;28;20040;-77
2023/12/20 07:15:08;;;;;;;9.45;2.88;;;5.80;99.90;;;6.31;100.00;100182.00;5071593;28;20047;-79
2023/12/20 07:17:34;;;;;;;12.02;2.83;;;5.70;99.90;;;6.25;100.00;100172.81;5064081;28;20028;-79
2023/12/20 07:20:03;;;;;;;16.13;2.88;;;5.70;99.90;;;6.17;100.00;100191.94;5056278;28;20033;-79
2023/12/20 07:22:31;;;;;;;14.25;2.97;;;5.70;99.90;;;6.27;100.00;100180.75;5059262;28;20033;-80
2023/12/20 07:24:58;;;;;;;;;;;5.70;99.90;;;6.25;100.00;100178.25;5068605;28;20048;-79
2023/12/20 07:27:24;;;;;;;13.32;2.70;;;5.70;99.90;;;6.28;100.00;100175.13;5057192;28;19942;-80
2023/12/20 07:29:50;;;;;;;12.35;2.72;;;5.70;99.90;;;6.21;100.00;100165.28;5069014;28;20044;-80
2023/12/20 07:32:15;;;;;;;12.40;2.97;;;5.60;99.90;;;6.23;100.00;100179.47;5071121;28;20064;-80
2023/12/20 07:34:41;;;;;;;16.27;2.75;;;5.60;99.90;;;6.23;100.00;100182.19;5055203;28;20040;-82
2023/12/20 07:37:10;;;;;;;13.60;3.22;;;5.60;99.90;;;6.22;100.00;100181.31;5071645;28;20047;-82
2023/12/20 07:39:36;;;;;;;13.93;3.75;;;5.60;99.90;;;6.32;100.00;100183.69;5067138;28;20037;-82
2023/12/20 07:42:01;;;;;;;14.43;2.30;;;5.60;99.90;;;6.36;100.00;100181.41;5063681;28;20047;-83
2023/12/20 07:44:27;;;;;;;17.10;3.17;;;5.70;99.90;;;6.33;100.00;100197.03;5037592;28;20033;-83
2023/12/20 07:46:53;;;;;;;14.45;3.20;;;5.80;99.90;;;6.46;100.00;100174.59;5061328;28;20396;-84
2023/12/20 07:49:19;;;;;;;17.17;3.50;;;5.90;99.90;;;6.51;100.00;100205.66;5046228;28;20095;-82
2023/12/20 07:51:45;;;;;;;17.15;3.25;;;5.90;99.90;;;6.53;100.00;100184.63;5066816;28;20025;-81
2023/12/20 07:54:10;;;;;;;22.77;4.65;;;5.80;99.90;;;6.40;100.00;100166.41;5071337;28;20040;-80
2023/12/20 07:56:36;;;;;;;17.42;4.55;;;5.80;99.90;;;6.18;100.00;100189.03;5046870;28;20555;-81
2023/12/20 07:59:02;;;;;;;19.50;3.63;;;5.80;99.90;;;6.10;100.00;100185.63;5062863;28;20063;-81
2023/12/20 08:01:28;;;;;;;12.98;3.30;;;5.70;99.90;;;6.13;100.00;100183.38;5042328;28;20036;-80
2023/12/20 08:03:54;;;;;;;13.15;3.10;;;5.60;99.90;;;6.08;100.00;100174.16;5059503;28;20053;-80
2023/12/20 08:06:19;;;;;;;17.10;3.70;;;5.50;99.90;;;5.97;100.00;100181.78;5060737;28;20048;-81
2023/12/20 08:08:45;;;;;;;15.35;3.17;;;5.50;99.90;;;5.86;100.00;100160.66;5068933;28;20429;-81
2023/12/20 08:11:11;;;;;;;15.48;4.30;;;5.50;99.90;;;5.94;100.00;100165.09;5068557;28;22078;-81
2023/12/20 08:13:36;;;;;;;18.88;4.47;;;5.40;99.90;;;5.94;100.00;100189.47;5067442;28;20032;-81
2023/12/20 08:16:03;;;;;;;14.65;3.85;;;5.50;99.90;;;5.96;100.00;100185.50;5059864;28;20033;-80
2023/12/20 08:18:29;;;;;;;17.15;4.75;;;5.50;99.90;;;6.08;100.00;100153.31;5056729;28;20047;-81
2023/12/20 08:20:55;;;;;;;20.23;4.88;;;5.50;99.90;;;6.04;100.00;100155.63;5064691;28;20123;-81
2023/12/20 08:23:21;;;;;;;14.95;4.50;;;5.50;99.90;;;6.17;100.00;100162.97;5064910;28;20040;-82
2023/12/20 08:25:48;;;;;;;19.95;4.70;;;5.60;99.90;;;6.08;100.00;100161.44;5070851;28;20464;-82
2023/12/20 08:28:13;;;;;;;22.88;4.40;;;5.60;99.90;;;6.19;100.00;100160.91;5065254;28;20039;-82
2023/12/20 08:30:39;;;;;;;18.63;3.92;;;5.60;99.90;;;6.13;100.00;100118.38;5070001;28;20416;-82
2023/12/20 08:33:07;;;;;;;19.27;4.55;;;5.60;99.90;;;6.17;100.00;100176.53;5061455;28;20088;-83
2023/12/20 08:35:33;;;;;;;23.55;4.22;;;5.70;99.90;;;6.37;100.00;100147.84;5060980;28;20021;-83
2023/12/20 08:37:59;;;;;;;16.45;4.28;;;5.80;99.90;;;6.29;100.00;100175.94;5071078;28;20423;-82
2023/12/20 08:40:24;;;;;;;18.25;3.97;;;5.80;99.90;;;6.36;100.00;100149.72;5050308;28;20437;-83
2023/12/20 08:42:50;;;;;;;15.45;3.85;;;5.80;99.90;;;6.33;100.00;100131.16;5067559;28;20041;-82
2023/12/20 08:45:16;;;;;;;14.43;3.63;;;5.80;99.90;;;6.39;100.00;100127.66;5035790;28;20487;-84
2023/12/20 08:47:44;;;;;;;17.70;3.40;;;5.90;99.90;;;6.46;100.00;100139.38;5063892;28;20024;-83
2023/12/20 08:50:10;;;;;;;15.57;3.42;;;6.00;99.90;;;6.41;100.00;100124.75;5055581;28;20063;-84
2023/12/20 08:52:36;;;;;;;17.83;3.58;;;6.00;99.90;;;6.40;100.00;100121.22;5056508;28;20087;-83
2023/12/20 08:55:01;;;;;;;14.90;3.28;;;5.90;99.90;;;6.50;100.00;100128.97;5066159;28;20479;-84
2023/12/20 08:57:28;;;;;;;15.60;3.78;;;6.00;99.90;;;6.58;100.00;100117.09;5046233;28;20036;-83
2023/12/20 08:59:53;;;;;;;14.98;4.13;;;6.00;99.90;;;6.61;100.00;100128.38;5070505;28;20499;-84
2023/12/20 09:02:19;;;;;;;11.85;3.42;;;6.10;99.90;;;6.57;100.00;100145.22;5063404;28;20037;-81
2023/12/20 09:04:45;;;;;;;13.63;4.10;;;6.10;99.90;;;6.54;100.00;100121.25;5070206;28;20052;-83
2023/12/20 09:07:24;;;;;;;17.55;3.70;;;6.20;99.90;;;6.69;100.00;100115.66;5045687;28;20086;-83
2023/12/20 09:09:51;;;;;;;15.52;3.50;;;6.20;99.90;;;6.86;100.00;100118.81;5066917;28;20485;-81
2023/12/20 09:12:19;;;;;;;12.32;3.25;;;6.20;99.90;;;6.88;100.00;100136.56;5065220;28;20032;-82
2023/12/20 09:14:46;;;;;;;14.18;3.28;;;6.30;99.90;;;7.01;100.00;100122.22;5063872;28;20119;-82
2023/12/20 09:17:12;;;;;;;13.90;2.83;;;6.40;99.90;;;6.93;100.00;100127.84;5068900;28;20047;-82
2023/12/20 09:19:38;;;;;;;13.00;3.00;;;6.40;99.90;;;7.00;100.00;100108.84;5066802;28;20040;-84
2023/12/20 09:22:05;;;;;;;10.68;3.28;;;6.50;99.90;;;6.92;100.00;100109.91;5062798;28;20045;-81
2023/12/20 09:24:31;;;;;;;10.05;2.58;;;6.40;99.90;;;6.94;100.00;100098.81;5067252;28;20032;-82
2023/12/20 09:26:57;;;;;;;15.32;3.22;;;6.40;99.90;;;6.98;100.00;100092.78;5067129;28;20044;-82
2023/12/20 09:29:24;;;;;;;10.55;3.13;;;6.40;99.90;;;7.02;100.00;100115.75;5061744;28;20614;-80
2023/12/20 09:31:50;;;;;;;11.83;2.93;;;6.50;99.90;;;6.97;100.00;100092.97;5049743;28;20551;-82
2023/12/20 09:34:19;;;;;;;13.45;2.85;;;6.50;99.90;;;6.95;100.00;100095.91;5053838;28;20057;-84
2023/12/20 09:36:46;;;;;;;13.52;2.88;;;6.50;99.90;;;6.98;100.00;100087.38;5049485;28;20803;-82
2023/12/20 09:39:20;;;;;;;9.90;2.70;;;6.50;99.90;;;7.18;100.00;100094.69;5054901;28;20400;-80
2023/12/20 09:41:57;;;;;;;16.15;3.50;;;6.50;99.90;;;7.20;100.00;100079.03;5061840;28;20063;-81
2023/12/20 09:44:23;;;;;;;13.13;3.08;;;6.60;99.90;;;7.26;100.00;100102.63;5063205;28;20037;-82
2023/12/20 09:46:53;;;;;;;8.30;2.50;;;6.70;99.90;;;7.31;100.00;100083.81;5053648;28;20046;-81
2023/12/20 09:49:19;;;;;;;11.32;3.35;;;6.70;99.90;;;7.39;100.00;100074.66;5056926;28;20029;-81
2023/12/20 09:51:46;;;;;;;9.32;2.60;;;6.80;99.90;;;7.41;100.00;100083.41;5062543;28;20511;-80
2023/12/20 09:54:16;;;;;;;12.45;3.20;;;6.80;99.90;;;7.42;100.00;100082.38;5067033;28;20044;-80
2023/12/20 09:56:43;;;;;;;13.70;2.50;;;6.80;99.90;;;7.42;100.00;100086.94;5071205;28;20497;-77
2023/12/20 09:59:09;;;;;;;11.48;2.80;;;6.80;99.90;;;7.45;100.00;100067.56;5066302;28;20373;-80
2023/12/20 10:01:36;;;;;;;14.90;2.78;;;6.80;99.90;;;7.60;100.00;100070.84;5064015;28;20032;-80
2023/12/20 10:04:08;;;;;;;18.58;3.13;;;6.90;99.90;;;7.70;100.00;100083.19;5065568;28;20047;-81
2023/12/20 10:06:36;;;;;;;10.27;2.17;;;6.90;99.90;;;7.85;100.00;100066.66;5052805;28;20707;-80
2023/12/20 10:09:04;;;;;;;13.25;2.80;;;6.90;99.90;;;7.61;100.00;100083.38;5058396;28;20033;-81